sensor_id;sensor_type;location;lat;lon;timestamp;temperature;humidity
4697;DHT22;2362;50.780;0.292;2023-04-01T00:00:50;10.20;99.90
4697;DHT22;2362;50.780;0.292;2023-04-01T00:03:43;10.20;99.90
4697;DHT22;2362;50.780;0.292;2023-04-01T00:06:14;10.20;99.90
4697;DHT22;2362;50.780;0.292;2023-04-01T00:08:40;10.20;99.90
4697;DHT22;2362;50.780;0.292;2023-04-01T00:11:06;10.20;99.90
4697;DHT22;2362;50.780;0.292;2023-04-01T00:13:32;10.30;99.90
4697;DHT22;2362;50.780;0.292;2023-04-01T00:15:58;10.30;99.90
4697;DHT22;2362;50.780;0.292;2023-04-01T00:18:24;10.30;99.90
4697;DHT22;2362;50.780;0.292;2023-04-01T00:20:51;10.30;99.90
4697;DHT22;2362;50.780;0.292;2023-04-01T00:23:17;10.30;99.90
4697;DHT22;2362;50.780;0.292;2023-04-01T00:25:44;10.30;99.90
4697;DHT22;2362;50.780;0.292;2023-04-01T00:28:11;10.30;99.90
4697;DHT22;2362;50.780;0.292;2023-04-01T00:30:37;10.30;99.90
4697;DHT22;2362;50.780;0.292;2023-04-01T00:33:04;10.30;99.90
4697;DHT22;2362;50.780;0.292;2023-04-01T00:35:30;10.30;99.90
4697;DHT22;2362;50.780;0.292;2023-04-01T00:37:58;10.30;99.90
4697;DHT22;2362;50.780;0.292;2023-04-01T00:42:52;10.30;99.90
4697;DHT22;2362;50.780;0.292;2023-04-01T00:45:39;10.30;99.90
4697;DHT22;2362;50.780;0.292;2023-04-01T00:48:17;10.40;99.90
4697;DHT22;2362;50.780;0.292;2023-04-01T00:50:50;10.30;99.90
4697;DHT22;2362;50.780;0.292;2023-04-01T00:53:17;10.30;99.90
4697;DHT22;2362;50.780;0.292;2023-04-01T00:55:50;10.30;99.90
4697;DHT22;2362;50.780;0.292;2023-04-01T00:58:21;10.30;99.90
4697;DHT22;2362;50.780;0.292;2023-04-01T01:00:48;10.20;99.90
4697;DHT22;2362;50.780;0.292;2023-04-01T01:03:40;10.20;99.90
4697;DHT22;2362;50.780;0.292;2023-04-01T01:06:26;10.20;99.90
4697;DHT22;2362;50.780;0.292;2023-04-01T01:11:32;10.30;99.90
4697;DHT22;2362;50.780;0.292;2023-04-01T01:25:42;10.30;99.90
4697;DHT22;2362;50.780;0.292;2023-04-01T01:28:47;10.30;99.90
4697;DHT22;2362;50.780;0.292;2023-04-01T01:34:55;10.30;99.90
4697;DHT22;2362;50.780;0.292;2023-04-01T01:37:25;10.30;99.90
4697;DHT22;2362;50.780;0.292;2023-04-01T01:40:03;10.30;99.90
4697;DHT22;2362;50.780;0.292;2023-04-01T01:42:31;10.30;99.90
4697;DHT22;2362;50.780;0.292;2023-04-01T01:45:00;10.30;99.90
4697;DHT22;2362;50.780;0.292;2023-04-01T01:47:28;10.30;99.90
4697;DHT22;2362;50.780;0.292;2023-04-01T01:49:55;10.30;99.90
4697;DHT22;2362;50.780;0.292;2023-04-01T01:52:26;10.30;99.90
4697;DHT22;2362;50.780;0.292;2023-04-01T01:54:55;10.30;99.90
4697;DHT22;2362;50.780;0.292;2023-04-01T01:57:28;10.20;99.90
4697;DHT22;2362;50.780;0.292;2023-04-01T01:59:59;10.30;99.90
4697;DHT22;2362;50.780;0.292;2023-04-01T02:02:27;10.30;99.90
4697;DHT22;2362;50.780;0.292;2023-04-01T02:04:57;10.30;99.90
4697;DHT22;2362;50.780;0.292;2023-04-01T02:07:31;10.30;99.90
4697;DHT22;2362;50.780;0.292;2023-04-01T02:09:58;10.30;99.90
4697;DHT22;2362;50.780;0.292;2023-04-01T02:12:24;10.40;99.90
4697;DHT22;2362;50.780;0.292;2023-04-01T02:14:59;10.30;99.90
4697;DHT22;2362;50.780;0.292;2023-04-01T02:17:29;10.30;99.90
4697;DHT22;2362;50.780;0.292;2023-04-01T02:20:12;10.30;99.90
4697;DHT22;2362;50.780;0.292;2023-04-01T02:22:42;10.40;99.90
4697;DHT22;2362;50.780;0.292;2023-04-01T02:25:13;10.40;99.90
4697;DHT22;2362;50.780;0.292;2023-04-01T02:27:42;10.30;99.90
4697;DHT22;2362;50.780;0.292;2023-04-01T02:30:09;10.30;99.90
4697;DHT22;2362;50.780;0.292;2023-04-01T02:32:37;10.30;99.90
4697;DHT22;2362;50.780;0.292;2023-04-01T02:35:12;10.30;99.90
4697;DHT22;2362;50.780;0.292;2023-04-01T02:37:39;10.30;99.90
4697;DHT22;2362;50.780;0.292;2023-04-01T02:40:13;10.20;99.90
4697;DHT22;2362;50.780;0.292;2023-04-01T02:42:38;10.20;99.90
4697;DHT22;2362;50.780;0.292;2023-04-01T02:45:05;10.20;99.90
4697;DHT22;2362;50.780;0.292;2023-04-01T02:47:31;10.20;99.90
4697;DHT22;2362;50.780;0.292;2023-04-01T02:49:57;10.20;99.90
4697;DHT22;2362;50.780;0.292;2023-04-01T02:52:33;10.20;99.90
4697;DHT22;2362;50.780;0.292;2023-04-01T02:54:59;10.20;99.90
4697;DHT22;2362;50.780;0.292;2023-04-01T02:57:25;10.20;99.90
4697;DHT22;2362;50.780;0.292;2023-04-01T02:59:51;10.20;99.90
4697;DHT22;2362;50.780;0.292;2023-04-01T03:02:16;10.20;99.90
4697;DHT22;2362;50.780;0.292;2023-04-01T03:04:42;10.20;99.90
4697;DHT22;2362;50.780;0.292;2023-04-01T03:07:08;10.20;99.90
4697;DHT22;2362;50.780;0.292;2023-04-01T03:09:37;10.20;99.90
4697;DHT22;2362;50.780;0.292;2023-04-01T03:12:03;10.20;99.90
4697;DHT22;2362;50.780;0.292;2023-04-01T03:14:29;10.20;99.90
4697;DHT22;2362;50.780;0.292;2023-04-01T03:16:55;10.20;99.90
4697;DHT22;2362;50.780;0.292;2023-04-01T03:19:20;10.20;99.90
4697;DHT22;2362;50.780;0.292;2023-04-01T03:21:46;10.20;99.90
4697;DHT22;2362;50.780;0.292;2023-04-01T03:24:12;10.20;99.90
4697;DHT22;2362;50.780;0.292;2023-04-01T03:26:37;10.20;99.90
4697;DHT22;2362;50.780;0.292;2023-04-01T03:29:04;10.10;99.90
4697;DHT22;2362;50.780;0.292;2023-04-01T03:31:30;10.10;99.90
4697;DHT22;2362;50.780;0.292;2023-04-01T03:33:56;10.10;99.90
4697;DHT22;2362;50.780;0.292;2023-04-01T03:36:21;10.10;99.90
4697;DHT22;2362;50.780;0.292;2023-04-01T03:38:47;10.10;99.90
4697;DHT22;2362;50.780;0.292;2023-04-01T03:41:15;10.10;99.90
4697;DHT22;2362;50.780;0.292;2023-04-01T03:43:41;10.10;99.90
4697;DHT22;2362;50.780;0.292;2023-04-01T03:46:07;10.00;99.90
4697;DHT22;2362;50.780;0.292;2023-04-01T03:48:33;10.00;99.90
4697;DHT22;2362;50.780;0.292;2023-04-01T03:50:58;10.00;99.90
4697;DHT22;2362;50.780;0.292;2023-04-01T03:53:24;10.00;99.90
4697;DHT22;2362;50.780;0.292;2023-04-01T03:55:50;10.00;99.90
4697;DHT22;2362;50.780;0.292;2023-04-01T03:58:17;10.00;99.90
4697;DHT22;2362;50.780;0.292;2023-04-01T04:00:43;10.00;99.90
4697;DHT22;2362;50.780;0.292;2023-04-01T04:03:09;10.00;99.90
4697;DHT22;2362;50.780;0.292;2023-04-01T04:05:35;10.00;99.90
4697;DHT22;2362;50.780;0.292;2023-04-01T04:08:01;10.00;99.90
4697;DHT22;2362;50.780;0.292;2023-04-01T04:10:27;10.00;99.90
4697;DHT22;2362;50.780;0.292;2023-04-01T04:13:19;9.90;99.90
4697;DHT22;2362;50.780;0.292;2023-04-01T04:15:45;9.90;99.90
4697;DHT22;2362;50.780;0.292;2023-04-01T04:18:11;9.90;99.90
4697;DHT22;2362;50.780;0.292;2023-04-01T04:20:36;9.90;99.90
4697;DHT22;2362;50.780;0.292;2023-04-01T04:23:02;9.90;99.90
4697;DHT22;2362;50.780;0.292;2023-04-01T04:25:28;9.90;99.90
4697;DHT22;2362;50.780;0.292;2023-04-01T04:27:53;9.90;99.90
4697;DHT22;2362;50.780;0.292;2023-04-01T04:30:19;9.90;99.90
4697;DHT22;2362;50.780;0.292;2023-04-01T04:32:45;9.90;99.90
4697;DHT22;2362;50.780;0.292;2023-04-01T04:35:10;9.90;99.90
4697;DHT22;2362;50.780;0.292;2023-04-01T04:37:36;9.90;99.90
4697;DHT22;2362;50.780;0.292;2023-04-01T04:40:02;9.90;99.90
4697;DHT22;2362;50.780;0.292;2023-04-01T04:42:27;9.90;99.90
4697;DHT22;2362;50.780;0.292;2023-04-01T04:44:53;9.90;99.90
4697;DHT22;2362;50.780;0.292;2023-04-01T04:47:44;9.90;99.90
4697;DHT22;2362;50.780;0.292;2023-04-01T04:50:35;9.90;99.90
4697;DHT22;2362;50.780;0.292;2023-04-01T04:53:26;9.90;99.90
4697;DHT22;2362;50.780;0.292;2023-04-01T04:56:21;9.90;99.90
4697;DHT22;2362;50.780;0.292;2023-04-01T04:58:47;9.90;99.90
4697;DHT22;2362;50.780;0.292;2023-04-01T05:01:15;9.80;99.90
4697;DHT22;2362;50.780;0.292;2023-04-01T05:03:41;9.90;99.90
4697;DHT22;2362;50.780;0.292;2023-04-01T05:06:09;9.90;99.90
4697;DHT22;2362;50.780;0.292;2023-04-01T05:08:35;9.90;99.90
4697;DHT22;2362;50.780;0.292;2023-04-01T05:11:02;9.90;99.90
4697;DHT22;2362;50.780;0.292;2023-04-01T05:13:28;9.90;99.90
4697;DHT22;2362;50.780;0.292;2023-04-01T05:15:54;9.90;99.90
4697;DHT22;2362;50.780;0.292;2023-04-01T05:18:20;9.90;99.90
4697;DHT22;2362;50.780;0.292;2023-04-01T05:20:53;9.90;99.90
4697;DHT22;2362;50.780;0.292;2023-04-01T05:23:19;9.90;99.90
4697;DHT22;2362;50.780;0.292;2023-04-01T05:25:47;9.90;99.90
4697;DHT22;2362;50.780;0.292;2023-04-01T05:28:13;9.90;99.90
4697;DHT22;2362;50.780;0.292;2023-04-01T05:30:43;9.90;99.90
4697;DHT22;2362;50.780;0.292;2023-04-01T05:33:09;9.90;99.90
4697;DHT22;2362;50.780;0.292;2023-04-01T05:35:35;9.90;99.90
4697;DHT22;2362;50.780;0.292;2023-04-01T05:38:01;9.90;99.90
4697;DHT22;2362;50.780;0.292;2023-04-01T05:40:28;9.90;99.90
4697;DHT22;2362;50.780;0.292;2023-04-01T05:42:54;9.80;99.90
4697;DHT22;2362;50.780;0.292;2023-04-01T05:45:19;9.80;99.90
4697;DHT22;2362;50.780;0.292;2023-04-01T05:47:45;9.80;99.90
4697;DHT22;2362;50.780;0.292;2023-04-01T05:50:11;9.80;99.90
4697;DHT22;2362;50.780;0.292;2023-04-01T05:52:37;9.80;99.90
4697;DHT22;2362;50.780;0.292;2023-04-01T05:55:03;9.80;99.90
4697;DHT22;2362;50.780;0.292;2023-04-01T05:57:30;9.80;99.90
4697;DHT22;2362;50.780;0.292;2023-04-01T05:59:55;9.80;99.90
4697;DHT22;2362;50.780;0.292;2023-04-01T06:02:24;9.70;99.90
4697;DHT22;2362;50.780;0.292;2023-04-01T06:04:59;9.70;99.90
4697;DHT22;2362;50.780;0.292;2023-04-01T06:07:27;9.60;99.90
4697;DHT22;2362;50.780;0.292;2023-04-01T06:09:54;9.60;99.90
4697;DHT22;2362;50.780;0.292;2023-04-01T06:15:34;9.60;99.90
4697;DHT22;2362;50.780;0.292;2023-04-01T06:18:08;9.60;99.90
4697;DHT22;2362;50.780;0.292;2023-04-01T06:26:24;9.60;99.90
4697;DHT22;2362;50.780;0.292;2023-04-01T06:29:09;9.50;99.90
4697;DHT22;2362;50.780;0.292;2023-04-01T06:43:34;9.50;99.90
4697;DHT22;2362;50.780;0.292;2023-04-01T06:46:36;9.50;99.90
4697;DHT22;2362;50.780;0.292;2023-04-01T06:52:25;9.50;99.90
4697;DHT22;2362;50.780;0.292;2023-04-01T06:54:56;9.50;99.90
4697;DHT22;2362;50.780;0.292;2023-04-01T06:57:41;9.60;99.90
4697;DHT22;2362;50.780;0.292;2023-04-01T07:00:19;9.60;99.90
4697;DHT22;2362;50.780;0.292;2023-04-01T07:02:53;9.60;99.90
4697;DHT22;2362;50.780;0.292;2023-04-01T07:05:24;9.60;99.90
4697;DHT22;2362;50.780;0.292;2023-04-01T07:07:54;9.50;99.90
4697;DHT22;2362;50.780;0.292;2023-04-01T07:13:05;9.50;99.90
4697;DHT22;2362;50.780;0.292;2023-04-01T07:15:41;9.50;99.90
4697;DHT22;2362;50.780;0.292;2023-04-01T07:18:15;9.60;99.90
4697;DHT22;2362;50.780;0.292;2023-04-01T07:20:42;9.70;99.90
4697;DHT22;2362;50.780;0.292;2023-04-01T07:23:31;9.70;99.90
4697;DHT22;2362;50.780;0.292;2023-04-01T07:26:16;9.70;99.90
4697;DHT22;2362;50.780;0.292;2023-04-01T07:28:42;9.70;99.90
4697;DHT22;2362;50.780;0.292;2023-04-01T07:31:24;9.70;99.90
4697;DHT22;2362;50.780;0.292;2023-04-01T07:34:14;9.70;99.90
4697;DHT22;2362;50.780;0.292;2023-04-01T07:50:29;10.10;99.90
4697;DHT22;2362;50.780;0.292;2023-04-01T08:06:33;10.30;99.90
4697;DHT22;2362;50.780;0.292;2023-04-01T08:12:43;10.40;99.90
4697;DHT22;2362;50.780;0.292;2023-04-01T08:15:32;10.40;99.90
4697;DHT22;2362;50.780;0.292;2023-04-01T08:18:31;10.40;99.90
4697;DHT22;2362;50.780;0.292;2023-04-01T08:21:00;10.30;99.90
4697;DHT22;2362;50.780;0.292;2023-04-01T08:23:32;10.50;99.90
4697;DHT22;2362;50.780;0.292;2023-04-01T08:28:59;10.40;99.90
4697;DHT22;2362;50.780;0.292;2023-04-01T08:34:00;10.40;99.90
4697;DHT22;2362;50.780;0.292;2023-04-01T08:36:37;10.40;99.90
4697;DHT22;2362;50.780;0.292;2023-04-01T08:39:10;10.40;99.90
4697;DHT22;2362;50.780;0.292;2023-04-01T08:56:06;10.50;99.90
4697;DHT22;2362;50.780;0.292;2023-04-01T09:15:32;10.80;99.90
4697;DHT22;2362;50.780;0.292;2023-04-01T09:23:59;10.80;99.90
4697;DHT22;2362;50.780;0.292;2023-04-01T09:27:03;10.80;99.90
4697;DHT22;2362;50.780;0.292;2023-04-01T09:32:16;10.70;99.90
4697;DHT22;2362;50.780;0.292;2023-04-01T09:35:07;10.70;99.90
4697;DHT22;2362;50.780;0.292;2023-04-01T09:43:16;10.80;99.90
4697;DHT22;2362;50.780;0.292;2023-04-01T09:54:34;11.30;99.90
4697;DHT22;2362;50.780;0.292;2023-04-01T10:26:01;11.20;99.90
4697;DHT22;2362;50.780;0.292;2023-04-01T10:34:13;11.30;99.90
4697;DHT22;2362;50.780;0.292;2023-04-01T10:36:47;11.40;99.90
4697;DHT22;2362;50.780;0.292;2023-04-01T10:45:25;11.40;99.90
4697;DHT22;2362;50.780;0.292;2023-04-01T10:48:08;11.20;99.90
4697;DHT22;2362;50.780;0.292;2023-04-01T10:59:26;10.70;99.90
4697;DHT22;2362;50.780;0.292;2023-04-01T11:31:47;11.70;99.90
4697;DHT22;2362;50.780;0.292;2023-04-01T11:34:50;11.70;99.90
4697;DHT22;2362;50.780;0.292;2023-04-01T11:39:59;12.00;99.90
4697;DHT22;2362;50.780;0.292;2023-04-01T11:53:47;11.80;99.90
4697;DHT22;2362;50.780;0.292;2023-04-01T11:56:43;11.80;99.90
4697;DHT22;2362;50.780;0.292;2023-04-01T11:59:34;12.00;99.90
4697;DHT22;2362;50.780;0.292;2023-04-01T12:02:29;12.10;99.90
4697;DHT22;2362;50.780;0.292;2023-04-01T12:05:31;12.30;99.90
4697;DHT22;2362;50.780;0.292;2023-04-01T12:08:10;12.40;99.90
4697;DHT22;2362;50.780;0.292;2023-04-01T12:13:32;12.40;99.90
4697;DHT22;2362;50.780;0.292;2023-04-01T12:18:42;12.40;99.90
4697;DHT22;2362;50.780;0.292;2023-04-01T12:49:15;12.50;99.90
4697;DHT22;2362;50.780;0.292;2023-04-01T13:14:44;13.20;99.90
4697;DHT22;2362;50.780;0.292;2023-04-01T13:17:33;13.10;99.90
4697;DHT22;2362;50.780;0.292;2023-04-01T13:28:05;13.00;99.90
4697;DHT22;2362;50.780;0.292;2023-04-01T13:30:43;13.10;99.90
4697;DHT22;2362;50.780;0.292;2023-04-01T13:33:38;13.20;99.90
4697;DHT22;2362;50.780;0.292;2023-04-01T13:36:21;13.10;99.90
4697;DHT22;2362;50.780;0.292;2023-04-01T13:39:19;13.00;99.90
4697;DHT22;2362;50.780;0.292;2023-04-01T13:42:11;13.10;99.90
4697;DHT22;2362;50.780;0.292;2023-04-01T14:06:23;13.10;99.90
4697;DHT22;2362;50.780;0.292;2023-04-01T14:09:19;13.30;99.90
4697;DHT22;2362;50.780;0.292;2023-04-01T14:11:56;13.40;99.90
4697;DHT22;2362;50.780;0.292;2023-04-01T14:14:32;13.30;99.90
4697;DHT22;2362;50.780;0.292;2023-04-01T14:17:23;13.30;99.90
4697;DHT22;2362;50.780;0.292;2023-04-01T14:23:02;13.30;99.90
4697;DHT22;2362;50.780;0.292;2023-04-01T14:25:51;13.20;99.90
4697;DHT22;2362;50.780;0.292;2023-04-01T14:45:02;13.00;99.90
4697;DHT22;2362;50.780;0.292;2023-04-01T14:50:20;13.20;99.90
4697;DHT22;2362;50.780;0.292;2023-04-01T14:52:59;13.20;99.90
4697;DHT22;2362;50.780;0.292;2023-04-01T15:03:58;12.80;99.90
4697;DHT22;2362;50.780;0.292;2023-04-01T15:28:25;12.80;99.90
4697;DHT22;2362;50.780;0.292;2023-04-01T15:33:46;12.50;99.90
4697;DHT22;2362;50.780;0.292;2023-04-01T15:43:53;12.30;99.90
4697;DHT22;2362;50.780;0.292;2023-04-01T15:46:44;12.20;99.90
4697;DHT22;2362;50.780;0.292;2023-04-01T16:03:01;12.10;99.90
4697;DHT22;2362;50.780;0.292;2023-04-01T16:11:42;12.50;99.90
4697;DHT22;2362;50.780;0.292;2023-04-01T16:14:23;12.50;99.90
4697;DHT22;2362;50.780;0.292;2023-04-01T16:19:47;12.50;99.90
4697;DHT22;2362;50.780;0.292;2023-04-01T16:22:35;12.40;99.90
4697;DHT22;2362;50.780;0.292;2023-04-01T16:28:21;12.40;99.90
4697;DHT22;2362;50.780;0.292;2023-04-01T16:31:15;12.50;99.90
4697;DHT22;2362;50.780;0.292;2023-04-01T16:33:57;12.40;99.90
4697;DHT22;2362;50.780;0.292;2023-04-01T16:36:48;12.30;99.90
4697;DHT22;2362;50.780;0.292;2023-04-01T16:39:33;12.30;99.90
4697;DHT22;2362;50.780;0.292;2023-04-01T16:42:43;12.30;99.90
4697;DHT22;2362;50.780;0.292;2023-04-01T16:45:41;12.30;99.90
4697;DHT22;2362;50.780;0.292;2023-04-01T16:48:13;12.30;99.90
4697;DHT22;2362;50.780;0.292;2023-04-01T16:50:55;12.20;99.90
4697;DHT22;2362;50.780;0.292;2023-04-01T16:58:42;11.90;99.90
4697;DHT22;2362;50.780;0.292;2023-04-01T17:02:18;11.90;99.90
4697;DHT22;2362;50.780;0.292;2023-04-01T17:12:52;11.80;99.90
4697;DHT22;2362;50.780;0.292;2023-04-01T17:15:28;11.80;99.90
4697;DHT22;2362;50.780;0.292;2023-04-01T17:18:19;11.80;99.90
4697;DHT22;2362;50.780;0.292;2023-04-01T17:35:26;11.30;99.90
4697;DHT22;2362;50.780;0.292;2023-04-01T17:43:27;11.20;99.90
4697;DHT22;2362;50.780;0.292;2023-04-01T17:46:54;11.10;99.90
4697;DHT22;2362;50.780;0.292;2023-04-01T17:51:36;11.00;99.90
4697;DHT22;2362;50.780;0.292;2023-04-01T18:08:12;10.80;99.90
4697;DHT22;2362;50.780;0.292;2023-04-01T18:13:48;10.80;99.90
4697;DHT22;2362;50.780;0.292;2023-04-01T18:16:37;10.70;99.90
4697;DHT22;2362;50.780;0.292;2023-04-01T18:19:22;10.70;99.90
4697;DHT22;2362;50.780;0.292;2023-04-01T18:25:17;10.60;99.90
4697;DHT22;2362;50.780;0.292;2023-04-01T18:27:49;10.60;99.90
4697;DHT22;2362;50.780;0.292;2023-04-01T18:32:59;10.50;99.90
4697;DHT22;2362;50.780;0.292;2023-04-01T18:35:52;10.50;99.90
4697;DHT22;2362;50.780;0.292;2023-04-01T18:38:37;10.50;99.90
4697;DHT22;2362;50.780;0.292;2023-04-01T18:41:47;10.40;99.90
4697;DHT22;2362;50.780;0.292;2023-04-01T18:44:45;10.40;99.90
4697;DHT22;2362;50.780;0.292;2023-04-01T18:49:54;10.30;99.90
4697;DHT22;2362;50.780;0.292;2023-04-01T19:00:16;10.30;99.90
4697;DHT22;2362;50.780;0.292;2023-04-01T19:03:01;10.30;99.90
4697;DHT22;2362;50.780;0.292;2023-04-01T19:05:31;10.30;99.90
4697;DHT22;2362;50.780;0.292;2023-04-01T19:19:20;10.10;99.90
4697;DHT22;2362;50.780;0.292;2023-04-01T19:27:34;10.10;99.90
4697;DHT22;2362;50.780;0.292;2023-04-01T19:30:15;10.10;99.90
4697;DHT22;2362;50.780;0.292;2023-04-01T19:35:51;10.00;99.90
4697;DHT22;2362;50.780;0.292;2023-04-01T19:38:32;10.00;99.90
4697;DHT22;2362;50.780;0.292;2023-04-01T19:41:30;10.10;99.90
4697;DHT22;2362;50.780;0.292;2023-04-01T19:44:06;10.00;99.90
4697;DHT22;2362;50.780;0.292;2023-04-01T19:46:45;10.00;99.90
4697;DHT22;2362;50.780;0.292;2023-04-01T19:50:18;10.00;99.90
4697;DHT22;2362;50.780;0.292;2023-04-01T19:52:30;10.00;99.90
4697;DHT22;2362;50.780;0.292;2023-04-01T19:55:36;10.00;99.90
4697;DHT22;2362;50.780;0.292;2023-04-01T20:00:57;10.00;99.90
4697;DHT22;2362;50.780;0.292;2023-04-01T20:04:03;10.00;99.90
4697;DHT22;2362;50.780;0.292;2023-04-01T20:06:43;10.00;99.90
4697;DHT22;2362;50.780;0.292;2023-04-01T20:14:58;10.00;99.90
4697;DHT22;2362;50.780;0.292;2023-04-01T20:17:44;10.00;99.90
4697;DHT22;2362;50.780;0.292;2023-04-01T20:27:49;10.00;99.90
4697;DHT22;2362;50.780;0.292;2023-04-01T20:36:09;10.00;99.90
4697;DHT22;2362;50.780;0.292;2023-04-01T20:38:58;9.90;99.90
4697;DHT22;2362;50.780;0.292;2023-04-01T20:44:55;9.80;99.90
4697;DHT22;2362;50.780;0.292;2023-04-01T20:50:39;9.70;99.90
4697;DHT22;2362;50.780;0.292;2023-04-01T20:53:35;9.50;99.90
4697;DHT22;2362;50.780;0.292;2023-04-01T21:12:50;9.10;99.90
4697;DHT22;2362;50.780;0.292;2023-04-01T21:29:25;9.00;99.90
4697;DHT22;2362;50.780;0.292;2023-04-01T21:32:17;9.10;99.90
4697;DHT22;2362;50.780;0.292;2023-04-01T21:50:24;9.00;99.90
4697;DHT22;2362;50.780;0.292;2023-04-01T22:06:56;9.00;99.90
4697;DHT22;2362;50.780;0.292;2023-04-01T22:09:39;9.00;99.90
4697;DHT22;2362;50.780;0.292;2023-04-01T22:12:20;9.00;99.90
4697;DHT22;2362;50.780;0.292;2023-04-01T22:18:19;9.00;99.90
4697;DHT22;2362;50.780;0.292;2023-04-01T22:21:12;9.00;99.90
4697;DHT22;2362;50.780;0.292;2023-04-01T22:24:03;8.90;99.90
4697;DHT22;2362;50.780;0.292;2023-04-01T22:27:07;8.90;99.90
4697;DHT22;2362;50.780;0.292;2023-04-01T22:29:37;8.90;99.90
4697;DHT22;2362;50.780;0.292;2023-04-01T22:32:15;8.90;99.90
4697;DHT22;2362;50.780;0.292;2023-04-01T22:34:49;8.80;99.90
4697;DHT22;2362;50.780;0.292;2023-04-01T22:37:25;8.80;99.90
4697;DHT22;2362;50.780;0.292;2023-04-01T22:42:47;8.80;99.90
4697;DHT22;2362;50.780;0.292;2023-04-01T22:45:37;8.80;99.90
4697;DHT22;2362;50.780;0.292;2023-04-01T22:51:10;8.80;99.90
4697;DHT22;2362;50.780;0.292;2023-04-01T22:54:04;8.80;99.90
4697;DHT22;2362;50.780;0.292;2023-04-01T22:56:37;8.70;99.90
4697;DHT22;2362;50.780;0.292;2023-04-01T23:01:56;8.70;99.90
4697;DHT22;2362;50.780;0.292;2023-04-01T23:04:32;8.70;99.90
4697;DHT22;2362;50.780;0.292;2023-04-01T23:07:03;8.70;99.90
4697;DHT22;2362;50.780;0.292;2023-04-01T23:09:34;8.70;99.90
4697;DHT22;2362;50.780;0.292;2023-04-01T23:12:13;8.70;99.90
4697;DHT22;2362;50.780;0.292;2023-04-01T23:28:32;8.70;99.90
4697;DHT22;2362;50.780;0.292;2023-04-01T23:30:48;8.70;99.90
4697;DHT22;2362;50.780;0.292;2023-04-01T23:36:13;8.70;99.90
4697;DHT22;2362;50.780;0.292;2023-04-01T23:38:42;8.70;99.90
4697;DHT22;2362;50.780;0.292;2023-04-01T23:41:16;8.60;99.90
4697;DHT22;2362;50.780;0.292;2023-04-01T23:43:43;8.60;99.90
4697;DHT22;2362;50.780;0.292;2023-04-01T23:46:12;8.60;99.90
4697;DHT22;2362;50.780;0.292;2023-04-01T23:48:40;8.60;99.90
4697;DHT22;2362;50.780;0.292;2023-04-01T23:51:27;8.60;99.90
4697;DHT22;2362;50.780;0.292;2023-04-01T23:54:03;8.60;99.90
4697;DHT22;2362;50.780;0.292;2023-04-01T23:56:39;8.60;99.90
4697;DHT22;2362;50.780;0.292;2023-04-01T23:59:16;8.60;99.90
